sensor_id;sensor_type;location;lat;lon;timestamp;temperature;humidity
44513;DHT22;30219;50.588;9.504;2022-08-19T00:00:07;18.30;99.90
44513;DHT22;30219;50.588;9.504;2022-08-19T00:02:34;18.20;99.90
44513;DHT22;30219;50.588;9.504;2022-08-19T00:05:00;18.20;99.90
44513;DHT22;30219;50.588;9.504;2022-08-19T00:07:25;18.30;99.90
44513;DHT22;30219;50.588;9.504;2022-08-19T00:09:51;18.30;99.90
44513;DHT22;30219;50.588;9.504;2022-08-19T00:12:16;18.30;99.90
44513;DHT22;30219;50.588;9.504;2022-08-19T00:14:42;18.20;99.90
44513;DHT22;30219;50.588;9.504;2022-08-19T00:17:08;18.10;99.90
44513;DHT22;30219;50.588;9.504;2022-08-19T00:19:35;18.10;99.90
44513;DHT22;30219;50.588;9.504;2022-08-19T00:22:01;18.10;99.90
44513;DHT22;30219;50.588;9.504;2022-08-19T00:24:28;18.10;99.90
44513;DHT22;30219;50.588;9.504;2022-08-19T00:26:55;18.20;99.90
44513;DHT22;30219;50.588;9.504;2022-08-19T00:29:23;18.30;99.90
44513;DHT22;30219;50.588;9.504;2022-08-19T00:31:49;18.30;99.90
44513;DHT22;30219;50.588;9.504;2022-08-19T00:34:18;18.20;99.90
44513;DHT22;30219;50.588;9.504;2022-08-19T00:36:44;18.20;99.90
44513;DHT22;30219;50.588;9.504;2022-08-19T00:39:10;18.00;99.90
44513;DHT22;30219;50.588;9.504;2022-08-19T00:41:36;18.00;99.90
44513;DHT22;30219;50.588;9.504;2022-08-19T00:44:10;18.00;99.90
44513;DHT22;30219;50.588;9.504;2022-08-19T00:46:38;18.00;99.90
44513;DHT22;30219;50.588;9.504;2022-08-19T00:49:12;18.00;99.90
44513;DHT22;30219;50.588;9.504;2022-08-19T00:51:41;18.00;99.90
44513;DHT22;30219;50.588;9.504;2022-08-19T00:54:08;17.90;99.90
44513;DHT22;30219;50.588;9.504;2022-08-19T00:56:35;17.90;99.90
44513;DHT22;30219;50.588;9.504;2022-08-19T00:59:02;17.80;99.90
44513;DHT22;30219;50.588;9.504;2022-08-19T01:01:28;17.80;99.90
44513;DHT22;30219;50.588;9.504;2022-08-19T01:03:54;17.80;99.90
44513;DHT22;30219;50.588;9.504;2022-08-19T01:06:20;17.90;99.90
44513;DHT22;30219;50.588;9.504;2022-08-19T01:08:46;17.90;99.90
44513;DHT22;30219;50.588;9.504;2022-08-19T01:11:12;17.80;99.90
44513;DHT22;30219;50.588;9.504;2022-08-19T01:13:38;17.80;99.90
44513;DHT22;30219;50.588;9.504;2022-08-19T01:16:07;17.80;99.90
44513;DHT22;30219;50.588;9.504;2022-08-19T01:18:38;17.80;99.90
44513;DHT22;30219;50.588;9.504;2022-08-19T01:21:24;17.80;99.90
44513;DHT22;30219;50.588;9.504;2022-08-19T01:23:52;17.70;99.90
44513;DHT22;30219;50.588;9.504;2022-08-19T01:26:21;17.70;99.90
44513;DHT22;30219;50.588;9.504;2022-08-19T01:28:50;17.70;99.90
44513;DHT22;30219;50.588;9.504;2022-08-19T01:31:21;17.70;99.90
44513;DHT22;30219;50.588;9.504;2022-08-19T01:33:48;17.70;99.90
44513;DHT22;30219;50.588;9.504;2022-08-19T01:36:22;17.70;99.90
44513;DHT22;30219;50.588;9.504;2022-08-19T01:38:48;17.80;99.90
44513;DHT22;30219;50.588;9.504;2022-08-19T01:41:14;17.80;99.90
44513;DHT22;30219;50.588;9.504;2022-08-19T01:43:40;18.00;99.90
44513;DHT22;30219;50.588;9.504;2022-08-19T01:46:06;18.00;99.90
44513;DHT22;30219;50.588;9.504;2022-08-19T01:48:40;18.00;99.90
44513;DHT22;30219;50.588;9.504;2022-08-19T01:51:08;18.10;99.90
44513;DHT22;30219;50.588;9.504;2022-08-19T01:53:35;18.20;99.90
44513;DHT22;30219;50.588;9.504;2022-08-19T01:56:01;18.20;99.90
44513;DHT22;30219;50.588;9.504;2022-08-19T01:58:32;18.20;99.90
44513;DHT22;30219;50.588;9.504;2022-08-19T02:01:01;18.40;99.90
44513;DHT22;30219;50.588;9.504;2022-08-19T02:03:27;18.40;99.90
44513;DHT22;30219;50.588;9.504;2022-08-19T02:06:03;18.50;99.90
44513;DHT22;30219;50.588;9.504;2022-08-19T02:08:31;18.60;99.90
44513;DHT22;30219;50.588;9.504;2022-08-19T02:10:57;18.60;99.90
44513;DHT22;30219;50.588;9.504;2022-08-19T02:13:23;18.70;99.90
44513;DHT22;30219;50.588;9.504;2022-08-19T02:15:49;18.70;99.90
44513;DHT22;30219;50.588;9.504;2022-08-19T02:18:15;18.70;99.90
44513;DHT22;30219;50.588;9.504;2022-08-19T02:20:41;18.80;99.90
44513;DHT22;30219;50.588;9.504;2022-08-19T02:23:10;18.80;99.90
44513;DHT22;30219;50.588;9.504;2022-08-19T02:25:36;18.70;99.90
44513;DHT22;30219;50.588;9.504;2022-08-19T02:28:02;18.70;99.90
44513;DHT22;30219;50.588;9.504;2022-08-19T02:30:28;18.80;99.90
44513;DHT22;30219;50.588;9.504;2022-08-19T02:32:53;18.80;99.90
44513;DHT22;30219;50.588;9.504;2022-08-19T02:35:20;18.90;99.90
44513;DHT22;30219;50.588;9.504;2022-08-19T02:37:46;18.90;99.90
44513;DHT22;30219;50.588;9.504;2022-08-19T02:40:31;18.90;99.90
44513;DHT22;30219;50.588;9.504;2022-08-19T02:43:04;18.90;99.90
44513;DHT22;30219;50.588;9.504;2022-08-19T02:45:36;18.90;99.90
44513;DHT22;30219;50.588;9.504;2022-08-19T02:48:03;18.90;99.90
44513;DHT22;30219;50.588;9.504;2022-08-19T02:50:29;18.90;99.90
44513;DHT22;30219;50.588;9.504;2022-08-19T02:52:55;19.00;99.90
44513;DHT22;30219;50.588;9.504;2022-08-19T02:55:20;19.00;99.90
44513;DHT22;30219;50.588;9.504;2022-08-19T02:57:46;19.00;99.90
44513;DHT22;30219;50.588;9.504;2022-08-19T03:00:12;19.00;99.90
44513;DHT22;30219;50.588;9.504;2022-08-19T03:02:39;19.00;99.90
44513;DHT22;30219;50.588;9.504;2022-08-19T03:05:06;18.90;99.90
44513;DHT22;30219;50.588;9.504;2022-08-19T03:07:33;19.00;99.90
44513;DHT22;30219;50.588;9.504;2022-08-19T03:09:58;19.00;99.90
44513;DHT22;30219;50.588;9.504;2022-08-19T03:12:24;18.90;99.90
44513;DHT22;30219;50.588;9.504;2022-08-19T03:14:49;18.90;99.90
44513;DHT22;30219;50.588;9.504;2022-08-19T03:17:16;18.80;99.90
44513;DHT22;30219;50.588;9.504;2022-08-19T03:19:42;18.70;99.90
44513;DHT22;30219;50.588;9.504;2022-08-19T03:22:08;18.70;99.90
44513;DHT22;30219;50.588;9.504;2022-08-19T03:24:34;18.70;99.90
44513;DHT22;30219;50.588;9.504;2022-08-19T03:26:59;18.70;99.90
44513;DHT22;30219;50.588;9.504;2022-08-19T03:29:27;18.70;99.90
44513;DHT22;30219;50.588;9.504;2022-08-19T03:31:53;18.70;99.90
44513;DHT22;30219;50.588;9.504;2022-08-19T03:34:24;18.60;99.90
44513;DHT22;30219;50.588;9.504;2022-08-19T03:36:54;18.70;99.90
44513;DHT22;30219;50.588;9.504;2022-08-19T03:39:21;18.80;99.90
44513;DHT22;30219;50.588;9.504;2022-08-19T03:41:48;18.80;99.90
44513;DHT22;30219;50.588;9.504;2022-08-19T03:44:20;18.90;99.90
44513;DHT22;30219;50.588;9.504;2022-08-19T03:46:52;18.90;99.90
44513;DHT22;30219;50.588;9.504;2022-08-19T03:49:19;19.00;99.90
44513;DHT22;30219;50.588;9.504;2022-08-19T03:51:46;19.00;99.90
44513;DHT22;30219;50.588;9.504;2022-08-19T03:54:13;19.00;99.90
44513;DHT22;30219;50.588;9.504;2022-08-19T03:56:42;19.00;99.90
44513;DHT22;30219;50.588;9.504;2022-08-19T03:59:11;19.00;99.90
44513;DHT22;30219;50.588;9.504;2022-08-19T04:01:38;19.00;99.90
44513;DHT22;30219;50.588;9.504;2022-08-19T04:04:05;19.00;99.90
44513;DHT22;30219;50.588;9.504;2022-08-19T04:06:36;19.10;99.90
44513;DHT22;30219;50.588;9.504;2022-08-19T04:09:04;19.10;99.90
44513;DHT22;30219;50.588;9.504;2022-08-19T04:11:38;19.10;99.90
44513;DHT22;30219;50.588;9.504;2022-08-19T04:14:08;19.10;99.90
44513;DHT22;30219;50.588;9.504;2022-08-19T04:16:34;19.10;99.90
44513;DHT22;30219;50.588;9.504;2022-08-19T04:19:01;19.00;99.90
44513;DHT22;30219;50.588;9.504;2022-08-19T04:21:28;19.20;99.90
44513;DHT22;30219;50.588;9.504;2022-08-19T04:23:55;19.20;99.90
44513;DHT22;30219;50.588;9.504;2022-08-19T04:26:24;19.20;99.90
44513;DHT22;30219;50.588;9.504;2022-08-19T04:28:49;19.20;99.90
44513;DHT22;30219;50.588;9.504;2022-08-19T04:31:28;19.20;99.90
44513;DHT22;30219;50.588;9.504;2022-08-19T04:33:59;19.30;99.90
44513;DHT22;30219;50.588;9.504;2022-08-19T04:36:28;19.30;99.90
44513;DHT22;30219;50.588;9.504;2022-08-19T04:38:56;19.30;99.90
44513;DHT22;30219;50.588;9.504;2022-08-19T04:41:23;19.30;99.90
44513;DHT22;30219;50.588;9.504;2022-08-19T04:44:07;19.30;99.90
44513;DHT22;30219;50.588;9.504;2022-08-19T04:46:33;19.30;99.90
44513;DHT22;30219;50.588;9.504;2022-08-19T04:48:59;19.40;99.90
44513;DHT22;30219;50.588;9.504;2022-08-19T04:51:25;19.40;99.90
44513;DHT22;30219;50.588;9.504;2022-08-19T04:53:52;19.40;99.90
44513;DHT22;30219;50.588;9.504;2022-08-19T04:56:21;19.40;99.90
44513;DHT22;30219;50.588;9.504;2022-08-19T04:58:48;19.40;99.90
44513;DHT22;30219;50.588;9.504;2022-08-19T05:01:25;19.40;99.90
44513;DHT22;30219;50.588;9.504;2022-08-19T05:03:52;19.40;99.90
44513;DHT22;30219;50.588;9.504;2022-08-19T05:06:19;19.40;99.90
44513;DHT22;30219;50.588;9.504;2022-08-19T05:08:46;19.40;99.90
44513;DHT22;30219;50.588;9.504;2022-08-19T05:13:46;19.40;99.90
44513;DHT22;30219;50.588;9.504;2022-08-19T05:16:13;19.40;99.90
44513;DHT22;30219;50.588;9.504;2022-08-19T05:18:39;19.40;99.90
44513;DHT22;30219;50.588;9.504;2022-08-19T05:21:24;19.40;99.90
44513;DHT22;30219;50.588;9.504;2022-08-19T05:24:11;19.50;99.90
44513;DHT22;30219;50.588;9.504;2022-08-19T05:26:40;19.50;99.90
44513;DHT22;30219;50.588;9.504;2022-08-19T05:29:06;19.60;99.90
44513;DHT22;30219;50.588;9.504;2022-08-19T05:31:34;19.60;99.90
44513;DHT22;30219;50.588;9.504;2022-08-19T05:34:01;19.70;99.90
44513;DHT22;30219;50.588;9.504;2022-08-19T05:36:28;19.80;99.90
44513;DHT22;30219;50.588;9.504;2022-08-19T05:38:58;19.90;99.90
44513;DHT22;30219;50.588;9.504;2022-08-19T05:41:23;20.00;99.90
44513;DHT22;30219;50.588;9.504;2022-08-19T05:44:00;20.00;99.90
44513;DHT22;30219;50.588;9.504;2022-08-19T05:46:26;20.00;99.90
44513;DHT22;30219;50.588;9.504;2022-08-19T05:48:51;20.00;99.90
44513;DHT22;30219;50.588;9.504;2022-08-19T05:51:17;20.00;99.90
44513;DHT22;30219;50.588;9.504;2022-08-19T05:53:43;20.10;99.90
44513;DHT22;30219;50.588;9.504;2022-08-19T05:56:12;20.10;99.90
44513;DHT22;30219;50.588;9.504;2022-08-19T05:58:42;20.10;99.90
44513;DHT22;30219;50.588;9.504;2022-08-19T06:01:16;20.10;99.90
44513;DHT22;30219;50.588;9.504;2022-08-19T06:03:42;20.10;99.90
44513;DHT22;30219;50.588;9.504;2022-08-19T06:06:10;20.10;99.90
44513;DHT22;30219;50.588;9.504;2022-08-19T06:08:36;20.10;99.90
44513;DHT22;30219;50.588;9.504;2022-08-19T06:11:24;20.10;99.90
44513;DHT22;30219;50.588;9.504;2022-08-19T06:13:59;20.20;99.90
44513;DHT22;30219;50.588;9.504;2022-08-19T06:16:25;20.20;99.90
44513;DHT22;30219;50.588;9.504;2022-08-19T06:18:52;20.10;99.90
44513;DHT22;30219;50.588;9.504;2022-08-19T06:21:22;20.20;99.90
44513;DHT22;30219;50.588;9.504;2022-08-19T06:23:49;20.20;99.90
44513;DHT22;30219;50.588;9.504;2022-08-19T06:26:17;20.20;99.90
44513;DHT22;30219;50.588;9.504;2022-08-19T06:28:44;20.30;99.90
44513;DHT22;30219;50.588;9.504;2022-08-19T06:31:13;20.40;99.90
44513;DHT22;30219;50.588;9.504;2022-08-19T06:33:40;20.30;99.90
44513;DHT22;30219;50.588;9.504;2022-08-19T06:36:07;20.30;99.90
44513;DHT22;30219;50.588;9.504;2022-08-19T06:38:33;20.40;99.90
44513;DHT22;30219;50.588;9.504;2022-08-19T06:41:05;20.40;99.90
44513;DHT22;30219;50.588;9.504;2022-08-19T06:43:31;20.40;99.90
44513;DHT22;30219;50.588;9.504;2022-08-19T06:45:56;20.50;99.90
44513;DHT22;30219;50.588;9.504;2022-08-19T06:48:22;20.50;99.90
44513;DHT22;30219;50.588;9.504;2022-08-19T06:50:47;20.60;99.90
44513;DHT22;30219;50.588;9.504;2022-08-19T06:53:15;20.60;99.90
44513;DHT22;30219;50.588;9.504;2022-08-19T06:55:40;20.60;99.90
44513;DHT22;30219;50.588;9.504;2022-08-19T06:58:06;20.60;99.90
44513;DHT22;30219;50.588;9.504;2022-08-19T07:00:32;20.70;99.90
44513;DHT22;30219;50.588;9.504;2022-08-19T07:02:58;20.70;99.90
44513;DHT22;30219;50.588;9.504;2022-08-19T07:05:24;20.80;99.90
44513;DHT22;30219;50.588;9.504;2022-08-19T07:07:50;20.80;99.90
44513;DHT22;30219;50.588;9.504;2022-08-19T07:10:15;20.90;99.90
44513;DHT22;30219;50.588;9.504;2022-08-19T07:12:41;21.00;99.90
44513;DHT22;30219;50.588;9.504;2022-08-19T07:15:07;21.00;99.90
44513;DHT22;30219;50.588;9.504;2022-08-19T07:17:35;21.10;99.90
44513;DHT22;30219;50.588;9.504;2022-08-19T07:20:03;21.20;99.90
44513;DHT22;30219;50.588;9.504;2022-08-19T07:22:28;21.20;99.90
44513;DHT22;30219;50.588;9.504;2022-08-19T07:24:54;21.20;99.90
44513;DHT22;30219;50.588;9.504;2022-08-19T07:27:20;21.30;99.90
44513;DHT22;30219;50.588;9.504;2022-08-19T07:29:45;21.30;99.90
44513;DHT22;30219;50.588;9.504;2022-08-19T07:32:11;21.30;99.90
44513;DHT22;30219;50.588;9.504;2022-08-19T07:34:37;21.40;99.90
44513;DHT22;30219;50.588;9.504;2022-08-19T07:37:05;21.50;99.90
44513;DHT22;30219;50.588;9.504;2022-08-19T07:39:33;21.60;99.90
44513;DHT22;30219;50.588;9.504;2022-08-19T07:42:01;21.70;99.90
44513;DHT22;30219;50.588;9.504;2022-08-19T07:44:27;21.80;99.90
44513;DHT22;30219;50.588;9.504;2022-08-19T07:46:55;21.80;99.90
44513;DHT22;30219;50.588;9.504;2022-08-19T07:49:22;22.00;99.90
44513;DHT22;30219;50.588;9.504;2022-08-19T07:51:55;22.10;99.90
44513;DHT22;30219;50.588;9.504;2022-08-19T07:54:23;22.20;99.90
44513;DHT22;30219;50.588;9.504;2022-08-19T07:56:49;22.30;99.90
44513;DHT22;30219;50.588;9.504;2022-08-19T07:59:19;22.40;99.90
44513;DHT22;30219;50.588;9.504;2022-08-19T08:01:46;22.50;99.90
44513;DHT22;30219;50.588;9.504;2022-08-19T08:04:11;22.50;99.90
44513;DHT22;30219;50.588;9.504;2022-08-19T08:06:56;22.50;99.90
44513;DHT22;30219;50.588;9.504;2022-08-19T08:09:42;22.50;99.90
44513;DHT22;30219;50.588;9.504;2022-08-19T08:12:18;22.40;99.90
44513;DHT22;30219;50.588;9.504;2022-08-19T08:14:50;22.40;99.90
44513;DHT22;30219;50.588;9.504;2022-08-19T08:17:17;22.40;99.90
44513;DHT22;30219;50.588;9.504;2022-08-19T08:19:44;22.40;99.90
44513;DHT22;30219;50.588;9.504;2022-08-19T08:22:11;22.40;99.90
44513;DHT22;30219;50.588;9.504;2022-08-19T08:24:56;22.30;99.90
44513;DHT22;30219;50.588;9.504;2022-08-19T08:27:24;22.40;99.90
44513;DHT22;30219;50.588;9.504;2022-08-19T08:29:50;22.40;99.90
44513;DHT22;30219;50.588;9.504;2022-08-19T08:32:15;22.40;99.90
44513;DHT22;30219;50.588;9.504;2022-08-19T08:34:42;22.50;99.90
44513;DHT22;30219;50.588;9.504;2022-08-19T08:37:07;22.40;99.90
44513;DHT22;30219;50.588;9.504;2022-08-19T08:39:33;22.40;99.90
44513;DHT22;30219;50.588;9.504;2022-08-19T08:44:59;22.40;99.90
44513;DHT22;30219;50.588;9.504;2022-08-19T08:47:28;22.40;99.90
44513;DHT22;30219;50.588;9.504;2022-08-19T08:50:10;22.40;99.90
44513;DHT22;30219;50.588;9.504;2022-08-19T08:52:44;22.50;99.90
44513;DHT22;30219;50.588;9.504;2022-08-19T08:55:21;22.40;99.90
44513;DHT22;30219;50.588;9.504;2022-08-19T09:00:19;22.60;99.90
44513;DHT22;30219;50.588;9.504;2022-08-19T09:02:46;22.60;99.90
44513;DHT22;30219;50.588;9.504;2022-08-19T09:05:12;22.70;99.90
44513;DHT22;30219;50.588;9.504;2022-08-19T09:10:40;22.80;99.90
44513;DHT22;30219;50.588;9.504;2022-08-19T09:15:56;23.00;99.90
44513;DHT22;30219;50.588;9.504;2022-08-19T09:18:24;23.10;99.90
44513;DHT22;30219;50.588;9.504;2022-08-19T09:20:49;23.20;99.90
44513;DHT22;30219;50.588;9.504;2022-08-19T09:23:15;23.20;99.90
44513;DHT22;30219;50.588;9.504;2022-08-19T09:25:41;23.30;99.90
44513;DHT22;30219;50.588;9.504;2022-08-19T09:28:07;23.50;99.90
44513;DHT22;30219;50.588;9.504;2022-08-19T09:30:38;23.60;99.90
44513;DHT22;30219;50.588;9.504;2022-08-19T09:33:05;23.70;99.90
44513;DHT22;30219;50.588;9.504;2022-08-19T09:35:32;23.70;99.90
44513;DHT22;30219;50.588;9.504;2022-08-19T09:37:58;23.80;99.90
44513;DHT22;30219;50.588;9.504;2022-08-19T09:40:26;23.90;99.90
44513;DHT22;30219;50.588;9.504;2022-08-19T09:42:52;24.10;99.90
44513;DHT22;30219;50.588;9.504;2022-08-19T09:45:20;24.20;99.90
44513;DHT22;30219;50.588;9.504;2022-08-19T09:47:48;24.30;99.90
44513;DHT22;30219;50.588;9.504;2022-08-19T09:50:14;24.50;99.60
44513;DHT22;30219;50.588;9.504;2022-08-19T09:52:40;24.50;98.80
44513;DHT22;30219;50.588;9.504;2022-08-19T09:55:09;24.40;98.80
44513;DHT22;30219;50.588;9.504;2022-08-19T09:57:35;24.40;98.70
44513;DHT22;30219;50.588;9.504;2022-08-19T10:00:03;24.40;98.90
44513;DHT22;30219;50.588;9.504;2022-08-19T10:02:29;24.50;98.80
44513;DHT22;30219;50.588;9.504;2022-08-19T10:04:55;24.80;98.90
44513;DHT22;30219;50.588;9.504;2022-08-19T10:07:39;25.10;97.80
44513;DHT22;30219;50.588;9.504;2022-08-19T10:10:06;25.00;97.90
44513;DHT22;30219;50.588;9.504;2022-08-19T10:12:32;25.10;97.50
44513;DHT22;30219;50.588;9.504;2022-08-19T10:14:59;25.40;97.10
44513;DHT22;30219;50.588;9.504;2022-08-19T10:17:25;25.70;96.10
44513;DHT22;30219;50.588;9.504;2022-08-19T10:19:51;25.70;95.80
44513;DHT22;30219;50.588;9.504;2022-08-19T10:22:18;25.70;95.70
44513;DHT22;30219;50.588;9.504;2022-08-19T10:24:45;25.80;96.00
44513;DHT22;30219;50.588;9.504;2022-08-19T10:27:10;26.20;95.60
44513;DHT22;30219;50.588;9.504;2022-08-19T10:29:38;26.30;95.00
44513;DHT22;30219;50.588;9.504;2022-08-19T10:32:05;26.30;93.50
44513;DHT22;30219;50.588;9.504;2022-08-19T10:34:33;26.50;93.60
44513;DHT22;30219;50.588;9.504;2022-08-19T10:37:00;26.80;93.40
44513;DHT22;30219;50.588;9.504;2022-08-19T10:39:26;27.00;93.30
44513;DHT22;30219;50.588;9.504;2022-08-19T10:41:55;27.10;93.20
44513;DHT22;30219;50.588;9.504;2022-08-19T10:44:22;26.90;93.70
44513;DHT22;30219;50.588;9.504;2022-08-19T10:46:49;27.00;94.00
44513;DHT22;30219;50.588;9.504;2022-08-19T10:49:15;27.50;92.60
44513;DHT22;30219;50.588;9.504;2022-08-19T10:51:41;28.10;91.30
44513;DHT22;30219;50.588;9.504;2022-08-19T10:54:27;28.40;90.40
44513;DHT22;30219;50.588;9.504;2022-08-19T10:57:13;28.30;90.50
44513;DHT22;30219;50.588;9.504;2022-08-19T10:59:39;28.20;90.20
44513;DHT22;30219;50.588;9.504;2022-08-19T11:02:08;28.40;90.40
44513;DHT22;30219;50.588;9.504;2022-08-19T11:04:39;28.50;89.50
44513;DHT22;30219;50.588;9.504;2022-08-19T11:07:08;28.80;89.90
44513;DHT22;30219;50.588;9.504;2022-08-19T11:09:41;28.90;88.50
44513;DHT22;30219;50.588;9.504;2022-08-19T11:12:08;28.70;87.80
44513;DHT22;30219;50.588;9.504;2022-08-19T11:14:35;28.60;87.30
44513;DHT22;30219;50.588;9.504;2022-08-19T11:17:02;28.40;87.40
44513;DHT22;30219;50.588;9.504;2022-08-19T11:19:28;28.40;88.10
44513;DHT22;30219;50.588;9.504;2022-08-19T11:21:54;28.50;87.70
44513;DHT22;30219;50.588;9.504;2022-08-19T11:24:22;28.40;88.00
44513;DHT22;30219;50.588;9.504;2022-08-19T11:26:49;28.60;88.70
44513;DHT22;30219;50.588;9.504;2022-08-19T11:29:17;29.00;88.60
44513;DHT22;30219;50.588;9.504;2022-08-19T11:31:45;29.30;87.30
44513;DHT22;30219;50.588;9.504;2022-08-19T11:34:15;29.50;86.80
44513;DHT22;30219;50.588;9.504;2022-08-19T11:36:43;29.50;86.40
44513;DHT22;30219;50.588;9.504;2022-08-19T11:39:12;29.60;85.70
44513;DHT22;30219;50.588;9.504;2022-08-19T11:41:39;29.70;85.10
44513;DHT22;30219;50.588;9.504;2022-08-19T11:44:05;29.90;84.50
44513;DHT22;30219;50.588;9.504;2022-08-19T11:46:34;30.00;85.20
44513;DHT22;30219;50.588;9.504;2022-08-19T11:49:01;30.40;85.40
44513;DHT22;30219;50.588;9.504;2022-08-19T11:51:28;30.60;83.40
44513;DHT22;30219;50.588;9.504;2022-08-19T11:53:55;30.40;82.00
44513;DHT22;30219;50.588;9.504;2022-08-19T11:56:21;30.40;83.30
44513;DHT22;30219;50.588;9.504;2022-08-19T11:58:47;30.00;83.60
44513;DHT22;30219;50.588;9.504;2022-08-19T12:01:15;29.70;83.70
44513;DHT22;30219;50.588;9.504;2022-08-19T12:03:42;29.80;84.50
44513;DHT22;30219;50.588;9.504;2022-08-19T12:06:10;30.00;84.50
44513;DHT22;30219;50.588;9.504;2022-08-19T12:08:39;30.50;84.10
44513;DHT22;30219;50.588;9.504;2022-08-19T12:11:05;30.50;83.20
44513;DHT22;30219;50.588;9.504;2022-08-19T12:13:33;30.70;83.00
44513;DHT22;30219;50.588;9.504;2022-08-19T12:15:59;30.70;82.40
44513;DHT22;30219;50.588;9.504;2022-08-19T12:18:26;30.40;82.20
44513;DHT22;30219;50.588;9.504;2022-08-19T12:20:53;30.00;82.30
44513;DHT22;30219;50.588;9.504;2022-08-19T12:23:22;29.70;82.30
44513;DHT22;30219;50.588;9.504;2022-08-19T12:25:49;29.60;82.80
44513;DHT22;30219;50.588;9.504;2022-08-19T12:28:22;29.40;82.90
44513;DHT22;30219;50.588;9.504;2022-08-19T12:30:49;29.60;82.90
44513;DHT22;30219;50.588;9.504;2022-08-19T12:33:17;29.50;82.40
44513;DHT22;30219;50.588;9.504;2022-08-19T12:35:44;29.50;82.40
44513;DHT22;30219;50.588;9.504;2022-08-19T12:38:11;29.80;82.30
44513;DHT22;30219;50.588;9.504;2022-08-19T12:40:37;29.80;81.50
44513;DHT22;30219;50.588;9.504;2022-08-19T12:43:05;29.90;81.00
44513;DHT22;30219;50.588;9.504;2022-08-19T12:45:31;29.80;81.90
44513;DHT22;30219;50.588;9.504;2022-08-19T12:47:57;29.90;81.90
44513;DHT22;30219;50.588;9.504;2022-08-19T12:50:23;30.10;82.70
44513;DHT22;30219;50.588;9.504;2022-08-19T12:52:49;30.20;80.80
44513;DHT22;30219;50.588;9.504;2022-08-19T12:55:15;30.30;79.10
44513;DHT22;30219;50.588;9.504;2022-08-19T12:57:40;30.40;79.40
44513;DHT22;30219;50.588;9.504;2022-08-19T13:00:09;30.60;79.60
44513;DHT22;30219;50.588;9.504;2022-08-19T13:02:41;30.70;79.00
44513;DHT22;30219;50.588;9.504;2022-08-19T13:05:12;30.80;78.60
44513;DHT22;30219;50.588;9.504;2022-08-19T13:07:40;31.00;79.00
44513;DHT22;30219;50.588;9.504;2022-08-19T13:10:08;30.60;78.20
44513;DHT22;30219;50.588;9.504;2022-08-19T13:12:34;30.30;79.00
44513;DHT22;30219;50.588;9.504;2022-08-19T13:15:00;30.10;79.30
44513;DHT22;30219;50.588;9.504;2022-08-19T13:17:25;30.00;79.60
44513;DHT22;30219;50.588;9.504;2022-08-19T13:19:52;30.00;79.30
44513;DHT22;30219;50.588;9.504;2022-08-19T13:22:17;29.80;79.70
44513;DHT22;30219;50.588;9.504;2022-08-19T13:24:43;29.90;80.20
44513;DHT22;30219;50.588;9.504;2022-08-19T13:27:09;29.90;79.60
44513;DHT22;30219;50.588;9.504;2022-08-19T13:29:34;29.90;79.70
44513;DHT22;30219;50.588;9.504;2022-08-19T13:32:19;29.90;79.60
44513;DHT22;30219;50.588;9.504;2022-08-19T13:35:04;29.70;78.50
44513;DHT22;30219;50.588;9.504;2022-08-19T13:37:30;29.50;79.60
44513;DHT22;30219;50.588;9.504;2022-08-19T13:40:11;29.50;80.80
44513;DHT22;30219;50.588;9.504;2022-08-19T13:42:40;29.60;79.30
44513;DHT22;30219;50.588;9.504;2022-08-19T13:45:06;29.70;79.00
44513;DHT22;30219;50.588;9.504;2022-08-19T13:47:32;29.70;78.10
44513;DHT22;30219;50.588;9.504;2022-08-19T13:50:00;29.70;78.40
44513;DHT22;30219;50.588;9.504;2022-08-19T13:52:25;29.70;78.50
44513;DHT22;30219;50.588;9.504;2022-08-19T13:54:51;29.70;78.70
44513;DHT22;30219;50.588;9.504;2022-08-19T13:57:17;29.80;78.90
44513;DHT22;30219;50.588;9.504;2022-08-19T13:59:42;29.80;79.00
44513;DHT22;30219;50.588;9.504;2022-08-19T14:02:08;29.80;78.20
44513;DHT22;30219;50.588;9.504;2022-08-19T14:04:33;29.70;79.30
44513;DHT22;30219;50.588;9.504;2022-08-19T14:06:59;29.60;79.60
44513;DHT22;30219;50.588;9.504;2022-08-19T14:09:24;29.70;80.10
44513;DHT22;30219;50.588;9.504;2022-08-19T14:11:50;29.60;79.50
44513;DHT22;30219;50.588;9.504;2022-08-19T14:14:16;29.50;79.60
44513;DHT22;30219;50.588;9.504;2022-08-19T14:16:42;29.70;79.60
44513;DHT22;30219;50.588;9.504;2022-08-19T14:19:08;29.20;79.80
44513;DHT22;30219;50.588;9.504;2022-08-19T14:21:33;29.10;79.40
44513;DHT22;30219;50.588;9.504;2022-08-19T14:24:01;28.80;80.50
44513;DHT22;30219;50.588;9.504;2022-08-19T14:26:27;28.90;80.50
44513;DHT22;30219;50.588;9.504;2022-08-19T14:28:52;29.10;80.30
44513;DHT22;30219;50.588;9.504;2022-08-19T14:31:19;29.30;80.40
44513;DHT22;30219;50.588;9.504;2022-08-19T14:33:47;29.40;79.90
44513;DHT22;30219;50.588;9.504;2022-08-19T14:36:13;29.50;79.90
44513;DHT22;30219;50.588;9.504;2022-08-19T14:38:39;29.60;79.30
44513;DHT22;30219;50.588;9.504;2022-08-19T14:41:21;29.40;79.60
44513;DHT22;30219;50.588;9.504;2022-08-19T14:43:50;29.30;79.50
44513;DHT22;30219;50.588;9.504;2022-08-19T14:46:22;29.00;80.00
44513;DHT22;30219;50.588;9.504;2022-08-19T14:48:49;28.90;79.60
44513;DHT22;30219;50.588;9.504;2022-08-19T14:51:15;28.90;79.70
44513;DHT22;30219;50.588;9.504;2022-08-19T14:53:41;28.80;79.90
44513;DHT22;30219;50.588;9.504;2022-08-19T14:56:13;28.70;80.30
44513;DHT22;30219;50.588;9.504;2022-08-19T14:58:40;28.50;80.30
44513;DHT22;30219;50.588;9.504;2022-08-19T15:01:07;28.50;81.10
44513;DHT22;30219;50.588;9.504;2022-08-19T15:03:34;28.60;81.20
44513;DHT22;30219;50.588;9.504;2022-08-19T15:06:01;28.60;80.80
44513;DHT22;30219;50.588;9.504;2022-08-19T15:08:29;28.60;81.40
44513;DHT22;30219;50.588;9.504;2022-08-19T15:10:55;28.60;81.00
44513;DHT22;30219;50.588;9.504;2022-08-19T15:13:22;28.30;81.90
44513;DHT22;30219;50.588;9.504;2022-08-19T15:15:48;28.40;81.60
44513;DHT22;30219;50.588;9.504;2022-08-19T15:18:14;28.50;82.20
44513;DHT22;30219;50.588;9.504;2022-08-19T15:20:40;28.60;81.40
44513;DHT22;30219;50.588;9.504;2022-08-19T15:23:06;28.60;81.00
44513;DHT22;30219;50.588;9.504;2022-08-19T15:25:31;28.80;80.30
44513;DHT22;30219;50.588;9.504;2022-08-19T15:27:58;28.90;80.50
44513;DHT22;30219;50.588;9.504;2022-08-19T15:30:26;28.80;79.40
44513;DHT22;30219;50.588;9.504;2022-08-19T15:32:53;28.80;79.50
44513;DHT22;30219;50.588;9.504;2022-08-19T15:35:20;28.80;79.60
44513;DHT22;30219;50.588;9.504;2022-08-19T15:37:51;28.90;78.90
44513;DHT22;30219;50.588;9.504;2022-08-19T15:40:18;28.80;79.00
44513;DHT22;30219;50.588;9.504;2022-08-19T15:42:44;28.80;79.10
44513;DHT22;30219;50.588;9.504;2022-08-19T15:45:11;28.80;79.40
44513;DHT22;30219;50.588;9.504;2022-08-19T15:47:38;28.80;80.10